Time;durP1;ratioP1;P1;durP2;ratioP2;P2;SDS_P1;SDS_P2;PMS_P1;PMS_P2;Temp;Humidity;BMP_temperature;BMP_pressure;BME280_temperature;BME280_humidity;BME280_pressure;Samples;Min_cycle;Max_cycle;Signal;HPM_P1;HPM_P2
2021/12/13 00:01:39;;;;;;;124.55;33.17;;;;;;;6.99;100.00;102117.59;4896941;29;20047;-77
2021/12/13 00:04:20;;;;;;;153.88;35.78;;;;;;;7.02;100.00;102113.94;4911116;29;20044;-75
2021/12/13 00:06:50;;;;;;;156.73;35.58;;;;;;;7.08;100.00;102112.75;4898464;29;20040;-76
2021/12/13 00:09:21;;;;;;;279.35;35.13;;;;;;;7.01;100.00;102118.34;4912599;29;20032;-76
2021/12/13 00:11:53;;;;;;;125.77;34.40;;;;;;;7.02;100.00;102120.00;4897364;29;20043;-76
2021/12/13 00:14:27;;;;;;;307.00;36.90;;;;;;;6.98;100.00;102125.50;4895103;29;20052;-76
2021/12/13 00:17:15;;;;;;;129.15;32.90;;;;;;;7.00;100.00;102124.47;4914929;29;20039;-76
2021/12/13 00:19:49;;;;;;;245.75;34.53;;;;;;;6.96;100.00;102117.75;4873935;29;20032;-76
2021/12/13 00:22:27;;;;;;;228.70;32.40;;;;;;;6.99;100.00;102120.19;4897802;29;20032;-76
2021/12/13 00:25:01;;;;;;;211.48;31.58;;;;;;;6.95;100.00;102126.53;4896755;29;20048;-75
2021/12/13 00:27:29;;;;;;;121.22;32.35;;;;;;;7.00;100.00;102121.88;4892809;29;20040;-77
2021/12/13 00:29:58;;;;;;;277.38;36.72;;;;;;;6.94;100.00;102124.84;4897868;29;20050;-76
2021/12/13 00:32:32;;;;;;;382.55;36.30;;;;;;;6.90;100.00;102122.50;4931916;29;20056;-77
2021/12/13 00:35:05;;;;;;;140.38;31.88;;;;;;;6.93;100.00;102128.38;4915902;29;20036;-77
2021/12/13 00:37:31;;;;;;;212.07;31.80;;;;;;;6.89;100.00;102124.25;4914139;29;20076;-77
2021/12/13 00:40:19;;;;;;;131.63;29.98;;;;;;;6.89;100.00;102126.03;4908441;29;20029;-77
2021/12/13 00:43:00;;;;;;;141.90;30.92;;;;;;;6.87;100.00;102126.13;4894684;29;20407;-75
2021/12/13 00:45:34;;;;;;;167.47;32.37;;;;;;;6.84;100.00;102126.31;4910371;29;20040;-75
2021/12/13 00:48:05;;;;;;;194.32;30.83;;;;;;;6.85;100.00;102134.97;4905678;29;20036;-77
2021/12/13 00:51:10;;;;;;;215.35;32.55;;;;;;;6.85;100.00;102130.59;4909534;29;20123;-77
2021/12/13 00:53:41;;;;;;;98.57;30.55;;;;;;;6.86;100.00;102132.28;4912003;29;20122;-76
2021/12/13 00:56:45;;;;;;;132.73;29.15;;;;;;;6.86;100.00;102140.09;4911454;29;20047;-77
2021/12/13 00:59:25;;;;;;;158.25;30.75;;;;;;;6.82;100.00;102136.00;4910257;29;20127;-75
2021/12/13 01:01:57;;;;;;;148.82;33.28;;;;;;;6.81;100.00;102145.56;4914822;29;20036;-76
2021/12/13 01:04:45;;;;;;;117.93;31.88;;;;;;;6.85;100.00;102140.19;4896213;29;20040;-75
2021/12/13 01:07:55;;;;;;;139.18;31.40;;;;;;;6.85;100.00;102143.63;4912993;29;20545;-77
2021/12/13 01:10:40;;;;;;;150.25;31.25;;;;;;;6.82;100.00;102144.66;4912800;29;20582;-77
2021/12/13 01:13:18;;;;;;;108.15;29.67;;;;;;;6.83;100.00;102148.91;4929369;29;20131;-76
2021/12/13 01:16:02;;;;;;;154.52;32.33;;;;;;;6.85;100.00;102148.00;4882772;29;20076;-77
2021/12/13 01:19:00;;;;;;;112.00;29.63;;;;;;;6.79;100.00;102139.59;4898662;29;20044;-76
2021/12/13 01:21:42;;;;;;;94.53;27.52;;;;;;;6.86;100.00;102147.94;4918669;29;20076;-76
2021/12/13 01:24:20;;;;;;;183.63;29.95;;;;;;;6.82;100.00;102155.09;4901318;29;20055;-77
2021/12/13 01:26:52;;;;;;;143.68;30.60;;;;;;;6.82;100.00;102149.03;4893474;29;20151;-76
2021/12/13 01:29:22;;;;;;;164.40;31.20;;;;;;;6.81;100.00;102149.94;4895955;29;20052;-76
2021/12/13 01:31:55;;;;;;;97.93;28.02;;;;;;;6.77;100.00;102145.84;4898234;29;20047;-76
2021/12/13 01:34:24;;;;;;;181.63;28.85;;;;;;;6.86;100.00;102154.91;4929272;29;21405;-76
2021/12/13 01:37:04;;;;;;;177.05;30.60;;;;;;;6.88;100.00;102163.50;4915026;29;20510;-76
2021/12/13 01:39:32;;;;;;;111.03;28.23;;;;;;;6.86;100.00;102160.13;4916598;29;20044;-76
2021/12/13 01:42:04;;;;;;;112.07;28.70;;;;;;;6.94;100.00;102156.13;4897552;29;20187;-77
2021/12/13 01:44:35;;;;;;;108.05;28.15;;;;;;;6.95;100.00;102164.78;4896461;29;20337;-77
2021/12/13 01:47:11;;;;;;;102.53;28.02;;;;;;;6.91;100.00;102169.38;4912297;29;20079;-76
2021/12/13 01:49:41;;;;;;;201.13;28.67;;;;;;;6.91;100.00;102171.13;4939602;29;20040;-76
2021/12/13 01:52:19;;;;;;;96.38;27.23;;;;;;;6.90;100.00;102172.06;4911881;29;20080;-76
2021/12/13 01:54:45;;;;;;;150.70;25.52;;;;;;;6.90;100.00;102169.47;4935296;29;20099;-77
2021/12/13 01:59:57;;;;;;;72.15;24.08;;;;;;;6.88;100.00;102163.50;4910692;29;20060;-76
2021/12/13 02:02:29;;;;;;;100.30;21.55;;;;;;;6.83;100.00;102166.34;4901967;29;20127;-76
2021/12/13 02:05:26;;;;;;;243.82;24.77;;;;;;;6.77;100.00;102154.50;4899134;29;20104;-76
2021/12/13 02:08:06;;;;;;;180.60;23.48;;;;;;;6.77;100.00;102151.88;4907273;29;20080;-76
2021/12/13 02:10:43;;;;;;;156.52;22.85;;;;;;;6.81;100.00;102161.22;4911237;29;20040;-76
2021/12/13 02:13:21;;;;;;;76.80;21.42;;;;;;;6.83;100.00;102163.75;4893412;29;20039;-77
2021/12/13 02:18:40;;;;;;;139.48;20.05;;;;;;;6.82;100.00;102154.25;4910435;29;20039;-76
2021/12/13 02:21:16;;;;;;;84.25;19.40;;;;;;;6.89;100.00;102157.34;4894964;29;20044;-76
2021/12/13 02:23:47;;;;;;;85.38;17.70;;;;;;;6.88;100.00;102164.31;4906705;29;20608;-76
2021/12/13 02:26:16;;;;;;;109.63;18.25;;;;;;;6.90;100.00;102164.25;4898541;29;20047;-75
2021/12/13 02:28:45;;;;;;;120.28;20.65;;;;;;;6.91;100.00;102165.91;4885162;29;20640;-77
2021/12/13 02:31:23;;;;;;;60.63;16.90;;;;;;;6.90;100.00;102170.28;4905215;29;20766;-76
2021/12/13 02:33:59;;;;;;;45.47;16.58;;;;;;;6.88;100.00;102173.94;4888636;29;20123;-76
2021/12/13 02:36:34;;;;;;;65.35;17.15;;;;;;;6.91;100.00;102166.78;4909719;29;20087;-77
2021/12/13 02:39:17;;;;;;;131.40;17.23;;;;;;;6.91;100.00;102168.50;4905894;29;20131;-76
2021/12/13 02:41:45;;;;;;;126.45;17.02;;;;;;;6.98;100.00;102177.69;4904226;29;20095;-76
2021/12/13 02:44:22;;;;;;;87.70;14.73;;;;;;;6.97;100.00;102176.84;4882400;29;20051;-77
2021/12/13 02:46:53;;;;;;;34.53;13.50;;;;;;;7.10;100.00;102182.19;4912803;29;20127;-77
2021/12/13 02:49:19;;;;;;;36.50;13.25;;;;;;;7.28;100.00;102184.66;4900142;29;20044;-76
2021/12/13 02:51:56;;;;;;;31.25;12.73;;;;;;;7.43;100.00;102191.59;4917248;29;20047;-76
2021/12/13 02:54:28;;;;;;;37.72;13.25;;;;;;;7.53;100.00;102181.44;4893938;29;20100;-77
2021/12/13 02:57:19;;;;;;;33.88;12.95;;;;;;;7.54;100.00;102185.75;4915873;29;20047;-77
2021/12/13 02:59:52;;;;;;;35.35;12.63;;;;;;;7.66;100.00;102184.16;4905420;29;20036;-76
2021/12/13 03:02:30;;;;;;;37.13;12.47;;;;;;;7.63;100.00;102174.75;4913531;29;20075;-76
2021/12/13 03:04:59;;;;;;;28.95;11.93;;;;;;;7.85;100.00;102197.78;4910211;29;20278;-76
2021/12/13 03:07:31;;;;;;;34.58;13.25;;;;;;;7.73;100.00;102178.47;4900466;29;20051;-76
2021/12/13 03:09:59;;;;;;;34.78;12.57;;;;;;;7.84;100.00;102177.81;4902211;29;20055;-76
2021/12/13 03:12:28;;;;;;;30.30;12.13;;;;;;;7.90;100.00;102190.50;4918078;29;20055;-76
2021/12/13 03:14:59;;;;;;;31.52;11.77;;;;;;;7.78;100.00;102186.03;4919361;29;20040;-75
2021/12/13 03:17:30;;;;;;;32.30;11.95;;;;;;;7.79;100.00;102175.47;4919543;29;20064;-76
2021/12/13 03:20:14;;;;;;;39.03;13.02;;;;;;;7.67;100.00;102168.41;4915495;29;20038;-77
2021/12/13 03:22:49;;;;;;;41.88;12.90;;;;;;;7.93;100.00;102195.56;4923357;29;20035;-77
2021/12/13 03:25:31;;;;;;;35.70;12.88;;;;;;;7.92;100.00;102196.47;4905873;29;20040;-76
2021/12/13 03:28:22;;;;;;;35.90;12.32;;;;;;;7.99;100.00;102189.94;4934242;29;20454;-77
2021/12/13 03:30:56;;;;;;;36.17;12.88;;;;;;;7.99;100.00;102194.34;4899060;29;20032;-76
2021/12/13 03:33:37;;;;;;;38.88;13.13;;;;;;;8.04;100.00;102196.66;4916721;29;20537;-75
2021/12/13 03:36:10;;;;;;;35.88;11.98;;;;;;;8.04;100.00;102194.03;4907564;29;20390;-77
2021/12/13 03:38:42;;;;;;;37.08;12.10;;;;;;;7.94;100.00;102193.78;4917911;29;20146;-77
2021/12/13 03:41:13;;;;;;;39.92;11.75;;;;;;;7.90;100.00;102194.91;4898176;29;20039;-77
2021/12/13 03:43:45;;;;;;;41.73;13.00;;;;;;;7.89;100.00;102191.47;4915881;29;20051;-75
2021/12/13 03:46:14;;;;;;;60.30;11.95;;;;;;;7.89;100.00;102195.81;4916553;29;20062;-78
2021/12/13 03:48:42;;;;;;;38.67;11.80;;;;;;;7.89;100.00;102194.06;4912540;29;20041;-77
2021/12/13 03:51:13;;;;;;;81.00;13.10;;;;;;;7.86;100.00;102204.69;4909483;29;20044;-76
2021/12/13 03:53:43;;;;;;;37.40;11.80;;;;;;;7.84;100.00;102200.50;4896403;29;20466;-77
2021/12/13 03:56:14;;;;;;;117.32;12.10;;;;;;;7.80;100.00;102208.53;4918312;29;20048;-77
2021/12/13 03:58:46;;;;;;;109.50;13.57;;;;;;;7.75;100.00;102213.16;4930801;29;20139;-78
2021/12/13 04:01:20;;;;;;;42.15;11.07;;;;;;;7.77;100.00;102206.09;4931146;29;20047;-77
2021/12/13 04:03:48;;;;;;;39.17;11.93;;;;;;;7.78;100.00;102214.78;4907937;29;20493;-77
2021/12/13 04:06:17;;;;;;;37.30;12.20;;;;;;;7.89;100.00;102216.72;4903362;29;20031;-76
2021/12/13 04:08:57;;;;;;;37.63;11.68;;;;;;;7.91;100.00;102220.94;4909028;29;20040;-76
2021/12/13 04:11:27;;;;;;;43.40;12.35;;;;;;;7.92;100.00;102217.38;4916216;29;20761;-77
2021/12/13 04:14:06;;;;;;;41.60;12.68;;;;;;;8.08;100.00;102219.06;4931313;29;20036;-76
2021/12/13 04:16:46;;;;;;;36.35;12.30;;;;;;;8.25;100.00;102228.47;4912370;29;20422;-76
2021/12/13 04:19:20;;;;;;;41.55;13.40;;;;;;;8.17;100.00;102229.81;4912421;29;20067;-76
2021/12/13 04:21:49;;;;;;;45.42;13.65;;;;;;;8.19;100.00;102222.72;4928856;29;20502;-77
2021/12/13 04:24:20;;;;;;;39.35;13.55;;;;;;;8.22;100.00;102216.44;4925851;29;20036;-75
2021/12/13 04:26:55;;;;;;;50.55;13.80;;;;;;;8.16;100.00;102229.91;4915372;29;20029;-75
2021/12/13 04:29:28;;;;;;;50.50;13.27;;;;;;;8.05;100.00;102222.69;4930916;29;20423;-76
2021/12/13 04:31:56;;;;;;;45.28;13.57;;;;;;;8.13;100.00;102230.06;4908346;29;20070;-76
2021/12/13 04:34:25;;;;;;;43.13;13.80;;;;;;;8.24;100.00;102229.41;4899927;29;20514;-76
2021/12/13 04:36:55;;;;;;;42.80;14.32;;;;;;;8.28;100.00;102231.75;4914564;29;20044;-77
2021/12/13 04:39:20;;;;;;;43.58;13.38;;;;;;;8.26;100.00;102238.84;4901670;29;20139;-77
2021/12/13 04:41:56;;;;;;;41.28;14.07;;;;;;;8.27;100.00;102231.81;4928250;29;20119;-77
2021/12/13 04:44:32;;;;;;;57.40;13.98;;;;;;;8.19;100.00;102251.47;4928081;29;20040;-77
2021/12/13 04:47:04;;;;;;;49.13;14.75;;;;;;;8.28;100.00;102243.97;4904905;29;20084;-75
2021/12/13 04:49:32;;;;;;;46.63;14.00;;;;;;;8.22;100.00;102241.75;4906999;29;20763;-77
2021/12/13 04:52:04;;;;;;;48.38;13.80;;;;;;;8.24;100.00;102248.56;4929765;29;20028;-78
2021/12/13 04:54:34;;;;;;;41.05;12.95;;;;;;;8.28;100.00;102255.25;4897981;29;20142;-76
2021/12/13 04:57:01;;;;;;;41.05;12.98;;;;;;;8.23;100.00;102252.13;4916671;29;20078;-76
2021/12/13 04:59:30;;;;;;;46.25;13.48;;;;;;;8.23;100.00;102252.13;4911293;29;20044;-76
2021/12/13 05:01:58;;;;;;;42.05;12.85;;;;;;;8.17;100.00;102255.09;4896636;29;20035;-76
2021/12/13 05:04:26;;;;;;;42.78;13.15;;;;;;;8.12;100.00;102247.53;4897423;29;20044;-76
2021/12/13 05:06:53;;;;;;;37.55;13.07;;;;;;;8.12;100.00;102252.75;4911540;29;20067;-77
2021/12/13 05:09:22;;;;;;;49.97;13.02;;;;;;;8.08;100.00;102250.41;4941749;28;20058;-77
2021/12/13 05:11:56;;;;;;;94.55;14.18;;;;;;;8.02;100.00;102248.19;4914347;29;20047;-76
2021/12/13 05:14:37;;;;;;;57.20;14.60;;;;;;;8.05;100.00;102248.00;4899090;29;20040;-76
2021/12/13 05:17:17;;;;;;;44.92;13.05;;;;;;;8.01;100.00;102255.19;4915305;29;20067;-75
2021/12/13 05:19:49;;;;;;;32.03;11.55;;;;;;;8.08;100.00;102259.13;4900653;29;20069;-75
2021/12/13 05:22:17;;;;;;;52.03;11.40;;;;;;;8.06;100.00;102262.75;4914070;29;20191;-75
2021/12/13 05:24:57;;;;;;;34.80;11.02;;;;;;;8.08;100.00;102263.47;4909646;29;20073;-76
2021/12/13 05:27:40;;;;;;;26.63;9.93;;;;;;;8.12;100.00;102267.63;4915739;29;20542;-75
2021/12/13 05:30:18;;;;;;;28.75;9.05;;;;;;;8.08;100.00;102279.16;4915338;29;20111;-76
2021/12/13 05:32:48;;;;;;;25.60;8.85;;;;;;;8.12;100.00;102278.06;4878045;29;20094;-76
2021/12/13 05:35:20;;;;;;;23.00;8.45;;;;;;;8.14;100.00;102276.19;4910008;29;20059;-77
2021/12/13 05:37:53;;;;;;;21.27;8.15;;;;;;;8.13;100.00;102275.34;4926186;29;20044;-76
2021/12/13 05:40:31;;;;;;;23.85;7.95;;;;;;;8.08;100.00;102272.19;4927109;29;20048;-79
2021/12/13 05:43:01;;;;;;;20.30;7.82;;;;;;;8.04;100.00;102270.66;4912815;29;20513;-76
2021/12/13 05:45:50;;;;;;;17.73;7.15;;;;;;;8.01;100.00;102268.25;4910362;29;20048;-77
2021/12/13 05:48:36;;;;;;;17.38;6.82;;;;;;;7.98;100.00;102269.25;4907659;29;20567;-76
2021/12/13 05:51:06;;;;;;;20.63;7.35;;;;;;;7.97;100.00;102272.81;4918606;29;20032;-76
2021/12/13 05:53:37;;;;;;;16.05;6.78;;;;;;;7.93;100.00;102278.31;4909244;29;20531;-75
2021/12/13 05:56:16;;;;;;;17.67;6.80;;;;;;;7.92;100.00;102276.63;4909789;29;20032;-76
2021/12/13 05:58:56;;;;;;;19.65;8.05;;;;;;;7.90;100.00;102279.34;4893011;29;20523;-75
2021/12/13 06:01:40;;;;;;;19.00;7.70;;;;;;;7.88;100.00;102286.44;4909144;29;20044;-77
2021/12/13 06:04:06;;;;;;;28.60;8.65;;;;;;;7.90;100.00;102292.41;4898850;29;20107;-76
2021/12/13 06:06:33;;;;;;;22.23;7.95;;;;;;;7.97;100.00;102293.72;4924072;28;20056;-77
2021/12/13 06:08:59;;;;;;;22.38;8.77;;;;;;;7.98;100.00;102291.94;4910196;29;20750;-77
2021/12/13 06:11:34;;;;;;;22.70;8.07;;;;;;;7.99;100.00;102294.47;4899858;29;20067;-77
2021/12/13 06:14:18;;;;;;;25.27;8.55;;;;;;;8.01;100.00;102294.38;4908340;29;20541;-77
2021/12/13 06:17:12;;;;;;;19.58;8.07;;;;;;;7.99;100.00;102285.81;4891367;29;20419;-76
2021/12/13 06:19:47;;;;;;;25.05;9.05;;;;;;;8.00;100.00;102297.91;4914369;29;20086;-76
2021/12/13 06:22:21;;;;;;;23.95;9.40;;;;;;;8.04;100.00;102299.41;4927486;29;20045;-77
2021/12/13 06:25:08;;;;;;;20.95;8.93;;;;;;;8.05;100.00;102300.28;4909569;29;20051;-76
2021/12/13 06:27:47;;;;;;;23.85;9.27;;;;;;;8.08;100.00;102303.53;4911562;29;20028;-77
2021/12/13 06:30:16;;;;;;;21.90;8.80;;;;;;;8.10;100.00;102306.91;4877308;29;20115;-76
2021/12/13 06:32:58;;;;;;;22.45;9.20;;;;;;;8.05;100.00;102300.28;4911230;29;20063;-76
2021/12/13 06:35:39;;;;;;;20.60;9.30;;;;;;;8.11;100.00;102305.94;4910787;29;20099;-77
2021/12/13 06:38:19;;;;;;;22.70;9.85;;;;;;;8.06;100.00;102313.25;4926434;29;20043;-77
2021/12/13 06:41:03;;;;;;;24.05;10.40;;;;;;;8.11;100.00;102310.34;4910400;29;20040;-77
2021/12/13 06:43:36;;;;;;;56.17;13.05;;;;;;;7.99;100.00;102310.16;4877536;29;20052;-77
2021/12/13 06:46:08;;;;;;;34.88;13.70;;;;;;;8.11;100.00;102324.25;4919663;29;20065;-77
2021/12/13 06:48:41;;;;;;;34.25;14.45;;;;;;;8.22;100.00;102325.41;4906188;29;20048;-76
2021/12/13 06:51:08;;;;;;;;;;;;;;;8.28;100.00;102327.63;4912207;29;20035;-76
2021/12/13 06:53:34;;;;;;;39.15;16.50;;;;;;;8.31;100.00;102333.53;4894003;29;19930;-76
2021/12/13 06:56:22;;;;;;;43.53;17.73;;;;;;;8.30;100.00;102323.16;4925029;29;20040;-76
2021/12/13 06:58:51;;;;;;;51.85;19.40;;;;;;;8.38;100.00;102329.59;4925298;29;20032;-77
2021/12/13 07:01:18;;;;;;;50.92;19.73;;;;;;;8.34;100.00;102330.72;4904430;29;20092;-76
2021/12/13 07:03:56;;;;;;;60.58;19.80;;;;;;;8.33;100.00;102330.81;4912008;29;20048;-76
2021/12/13 07:06:22;;;;;;;59.88;20.60;;;;;;;8.30;100.00;102339.66;4926344;29;20041;-77
2021/12/13 07:09:08;;;;;;;64.07;20.23;;;;;;;8.30;100.00;102349.28;4895407;29;20050;-76
2021/12/13 07:11:48;;;;;;;59.97;22.02;;;;;;;8.33;100.00;102349.94;4909767;29;20068;-76
2021/12/13 07:14:16;;;;;;;61.03;21.50;;;;;;;8.33;100.00;102356.97;4911714;29;20032;-77
2021/12/13 07:16:51;;;;;;;66.13;21.60;;;;;;;8.35;100.00;102355.09;4923533;29;20051;-75
2021/12/13 07:19:23;;;;;;;63.72;22.02;;;;;;;8.31;100.00;102357.06;4911034;29;20507;-77
2021/12/13 07:22:00;;;;;;;67.35;21.17;;;;;;;8.29;100.00;102358.09;4910843;29;20028;-76
2021/12/13 07:24:34;;;;;;;69.60;21.15;;;;;;;8.29;100.00;102361.53;4925429;29;20120;-75
2021/12/13 07:27:29;;;;;;;62.22;20.17;;;;;;;8.25;100.00;102359.19;4914388;29;20045;-75
2021/12/13 07:30:17;;;;;;;59.00;20.55;;;;;;;8.25;100.00;102357.44;4924463;29;20119;-77
2021/12/13 07:32:58;;;;;;;66.32;20.77;;;;;;;8.30;100.00;102368.44;4914499;29;20036;-77
2021/12/13 07:35:29;;;;;;;50.95;19.20;;;;;;;8.29;100.00;102366.75;4912083;29;20407;-75
2021/12/13 07:38:03;;;;;;;57.58;18.85;;;;;;;8.31;100.00;102367.50;4912797;29;20043;-75
2021/12/13 07:40:52;;;;;;;51.03;18.20;;;;;;;8.31;100.00;102374.53;4928594;29;20036;-76
2021/12/13 07:43:30;;;;;;;51.38;18.15;;;;;;;8.28;100.00;102375.53;4925251;29;20048;-77
2021/12/13 07:46:09;;;;;;;54.38;17.90;;;;;;;8.35;100.00;102376.84;4926168;29;20411;-76
2021/12/13 07:48:41;;;;;;;50.90;16.92;;;;;;;8.37;100.00;102377.59;4915015;29;20511;-76
2021/12/13 07:51:25;;;;;;;39.55;15.77;;;;;;;8.41;100.00;102374.81;4919638;29;20055;-76
2021/12/13 07:53:57;;;;;;;35.95;13.98;;;;;;;8.41;100.00;102375.63;4914405;29;20055;-77
2021/12/13 07:56:28;;;;;;;39.58;14.00;;;;;;;8.43;100.00;102379.03;4918377;29;20036;-77
2021/12/13 07:59:28;;;;;;;37.25;12.80;;;;;;;8.48;100.00;102384.00;4914575;29;20514;-78
2021/12/13 08:02:02;;;;;;;35.13;12.75;;;;;;;8.46;100.00;102381.47;4916075;29;20075;-77
2021/12/13 08:04:52;;;;;;;33.53;12.55;;;;;;;8.47;100.00;102388.38;4914139;29;20041;-78
2021/12/13 08:07:40;;;;;;;31.75;13.38;;;;;;;8.53;100.00;102388.00;4913923;29;20487;-77
2021/12/13 08:10:19;;;;;;;34.22;13.55;;;;;;;8.60;100.00;102387.63;4929534;29;20078;-77
2021/12/13 08:12:50;;;;;;;43.33;14.23;;;;;;;8.57;100.00;102401.75;4902086;29;20436;-77
2021/12/13 08:15:50;;;;;;;38.33;13.38;;;;;;;8.51;100.00;102400.34;4902289;29;20040;-77
2021/12/13 08:18:33;;;;;;;34.35;12.95;;;;;;;8.50;100.00;102405.66;4904417;29;20036;-76
2021/12/13 08:21:01;;;;;;;28.27;12.18;;;;;;;8.57;100.00;102414.81;4908496;29;20036;-77
2021/12/13 08:23:40;;;;;;;31.15;13.30;;;;;;;8.57;100.00;102409.59;4936148;29;20087;-77
2021/12/13 08:26:10;;;;;;;28.52;12.95;;;;;;;8.61;100.00;102411.09;4908519;29;20048;-77
2021/12/13 08:28:49;;;;;;;30.25;12.38;;;;;;;8.64;100.00;102407.44;4903943;29;20811;-78
2021/12/13 08:31:21;;;;;;;28.00;11.70;;;;;;;8.70;100.00;102412.28;4933840;29;20040;-77
2021/12/13 08:33:52;;;;;;;30.35;13.10;;;;;;;8.68;100.00;102414.16;4930003;29;20036;-77
2021/12/13 08:36:23;;;;;;;29.08;12.38;;;;;;;8.69;100.00;102414.06;4913993;29;20036;-76
2021/12/13 08:39:04;;;;;;;32.70;13.30;;;;;;;8.63;100.00;102424.91;4933389;29;20494;-77
2021/12/13 08:41:36;;;;;;;33.38;13.55;;;;;;;8.65;100.00;102425.66;4912299;29;20303;-76
2021/12/13 08:44:11;;;;;;;;;;;;;;;8.63;100.00;102424.91;4913188;29;20032;-76
2021/12/13 08:46:46;;;;;;;28.20;12.75;;;;;;;8.70;100.00;102417.50;4924401;29;20623;-77
2021/12/13 08:49:21;;;;;;;29.20;13.02;;;;;;;8.77;100.00;102426.69;4896834;29;20039;-77
2021/12/13 08:51:57;;;;;;;27.25;12.98;;;;;;;8.85;100.00;102426.22;4895093;29;20056;-76
2021/12/13 08:54:35;;;;;;;29.65;13.32;;;;;;;8.80;100.00;102431.75;4931376;29;20044;-75
2021/12/13 08:57:02;;;;;;;28.38;14.05;;;;;;;8.70;100.00;102414.91;4915166;29;20665;-78
2021/12/13 08:59:28;;;;;;;31.60;14.60;;;;;;;8.77;100.00;102431.91;4894987;29;20100;-77
2021/12/13 09:02:04;;;;;;;30.63;14.65;;;;;;;8.78;100.00;102433.59;4902067;29;20075;-77
2021/12/13 09:04:43;;;;;;;35.45;14.93;;;;;;;8.73;100.00;102431.25;4913252;29;20036;-77
2021/12/13 09:07:13;;;;;;;31.55;14.60;;;;;;;8.75;100.00;102431.16;4916228;29;20044;-77
2021/12/13 09:09:46;;;;;;;34.85;15.45;;;;;;;8.79;100.00;102435.28;4941921;29;20043;-76
2021/12/13 09:12:15;;;;;;;34.25;16.80;;;;;;;8.84;100.00;102440.25;4903827;29;20040;-77
2021/12/13 09:14:50;;;;;;;34.85;16.05;;;;;;;8.92;100.00;102445.84;4926400;29;20509;-77
2021/12/13 09:17:36;;;;;;;40.83;16.88;;;;;;;8.94;100.00;102450.03;4914292;29;20511;-78
2021/12/13 09:20:14;;;;;;;37.55;16.60;;;;;;;8.93;100.00;102453.59;4914792;29;20104;-77
2021/12/13 09:22:42;;;;;;;36.33;16.90;;;;;;;8.95;100.00;102456.13;4912779;29;20459;-76
2021/12/13 09:25:31;;;;;;;34.55;16.85;;;;;;;8.97;100.00;102449.03;4938691;29;20039;-77
2021/12/13 09:28:01;;;;;;;29.10;16.15;;;;;;;9.03;100.00;102453.03;4913824;29;20071;-77
2021/12/13 09:30:42;;;;;;;32.28;16.90;;;;;;;9.06;100.00;102452.84;4888463;29;20074;-77
2021/12/13 09:33:22;;;;;;;33.08;17.52;;;;;;;9.02;100.00;102449.56;4916485;29;20051;-77
2021/12/13 09:36:08;;;;;;;28.88;15.77;;;;;;;9.09;100.00;102450.03;4912501;29;20136;-77
2021/12/13 09:38:36;;;;;;;35.08;17.20;;;;;;;9.07;100.00;102452.75;4916648;29;20084;-77
2021/12/13 09:41:18;;;;;;;35.08;16.35;;;;;;;9.09;100.00;102452.66;4913095;29;20052;-77
2021/12/13 09:44:00;;;;;;;34.10;17.13;;;;;;;9.15;100.00;102441.78;4905303;29;20519;-77
2021/12/13 09:46:37;;;;;;;35.07;17.07;;;;;;;9.16;100.00;102446.09;4917446;29;20047;-77
2021/12/13 09:49:11;;;;;;;36.10;15.60;;;;;;;9.15;100.00;102447.91;4916851;29;20039;-77
2021/12/13 09:51:46;;;;;;;35.47;16.30;;;;;;;9.17;100.00;102439.91;4903034;29;20399;-77
2021/12/13 09:54:21;;;;;;;37.28;17.25;;;;;;;9.16;100.00;102451.34;4900117;29;20040;-77
2021/12/13 09:56:50;;;;;;;32.22;16.67;;;;;;;9.19;100.00;102448.50;4897361;29;20036;-78
2021/12/13 09:59:22;;;;;;;30.17;15.70;;;;;;;9.20;100.00;102447.59;4919348;29;20040;-76
2021/12/13 10:01:50;;;;;;;39.85;16.67;;;;;;;9.27;100.00;102450.69;4896201;29;20498;-77
2021/12/13 10:04:26;;;;;;;27.58;14.45;;;;;;;9.37;100.00;102448.31;4899958;29;20044;-77
2021/12/13 10:07:12;;;;;;;30.98;14.95;;;;;;;9.35;100.00;102454.47;4928934;29;20036;-77
2021/12/13 10:09:45;;;;;;;26.73;15.27;;;;;;;9.27;100.00;102453.31;4927363;29;20060;-76
2021/12/13 10:12:24;;;;;;;24.80;13.80;;;;;;;9.30;100.00;102458.31;4883239;29;20044;-77
2021/12/13 10:14:54;;;;;;;25.15;13.55;;;;;;;9.30;100.00;102455.72;4896821;29;20498;-77
2021/12/13 10:17:25;;;;;;;26.20;14.38;;;;;;;9.25;100.00;102453.41;4912256;29;20411;-76
2021/12/13 10:19:54;;;;;;;25.77;13.30;;;;;;;9.33;100.00;102438.03;4899731;29;20076;-77
2021/12/13 10:22:26;;;;;;;22.52;12.00;;;;;;;9.35;100.00;102457.09;4902155;29;20261;-76
2021/12/13 10:24:57;;;;;;;20.17;11.30;;;;;;;9.32;100.00;102452.06;4902409;29;20043;-77
2021/12/13 10:27:23;;;;;;;22.77;11.35;;;;;;;9.41;100.00;102458.50;4909980;29;20047;-77
2021/12/13 10:29:58;;;;;;;19.58;11.13;;;;;;;9.47;100.00;102455.47;4926457;29;20052;-77
2021/12/13 10:32:31;;;;;;;17.65;10.23;;;;;;;9.47;100.00;102465.13;4896355;29;20044;-75
2021/12/13 10:35:08;;;;;;;16.90;9.57;;;;;;;9.49;100.00;102463.25;4925768;29;20040;-76
2021/12/13 10:37:40;;;;;;;15.48;8.90;;;;;;;9.59;100.00;102459.13;4916876;29;20044;-77
2021/12/13 10:40:21;;;;;;;19.38;9.10;;;;;;;9.61;100.00;102466.88;4902492;29;20051;-75
2021/12/13 10:42:52;;;;;;;14.23;9.38;;;;;;;9.64;100.00;102469.28;4913902;29;20047;-77
2021/12/13 10:45:25;;;;;;;18.27;8.60;;;;;;;9.68;100.00;102473.38;4913476;29;20028;-78
2021/12/13 10:47:55;;;;;;;14.18;8.52;;;;;;;9.74;100.00;102473.84;4899319;29;20079;-77
2021/12/13 10:50:28;;;;;;;19.38;9.82;;;;;;;9.74;100.00;102471.22;4899583;29;20039;-77
2021/12/13 10:52:54;;;;;;;;;;;;;;;9.72;100.00;102467.03;4916532;29;20510;-77
2021/12/13 10:55:32;;;;;;;14.55;8.57;;;;;;;9.70;100.00;102474.13;4881491;29;19923;-77
2021/12/13 10:57:58;;;;;;;14.95;8.93;;;;;;;9.77;100.00;102469.34;4915608;29;20082;-77
2021/12/13 11:00:39;;;;;;;12.60;7.95;;;;;;;9.87;100.00;102468.66;4916922;29;20055;-78
2021/12/13 11:03:10;;;;;;;11.70;6.90;;;;;;;9.91;100.00;102464.06;4918073;29;20075;-77
2021/12/13 11:05:36;;;;;;;13.52;7.07;;;;;;;9.89;100.00;102468.56;4918120;29;20024;-78
2021/12/13 11:08:05;;;;;;;11.60;6.40;;;;;;;9.84;100.00;102455.75;4915812;29;20040;-77
2021/12/13 11:10:53;;;;;;;13.43;6.88;;;;;;;9.84;100.00;102462.78;4919618;29;20040;-77
2021/12/13 11:13:21;;;;;;;9.80;6.60;;;;;;;9.83;100.00;102466.31;4917713;29;20044;-77
2021/12/13 11:15:49;;;;;;;9.70;6.68;;;;;;;9.83;100.00;102464.56;4903578;29;20048;-77
2021/12/13 11:18:27;;;;;;;11.65;7.03;;;;;;;9.82;100.00;102456.78;4910377;29;20679;-77
2021/12/13 11:20:57;;;;;;;14.38;7.03;;;;;;;9.87;100.00;102462.56;4920612;29;20510;-76
2021/12/13 11:23:24;;;;;;;12.30;6.68;;;;;;;9.98;100.00;102452.22;4907499;29;20043;-77
2021/12/13 11:25:55;;;;;;;12.20;7.63;;;;;;;10.03;100.00;102447.50;4920240;29;20024;-77
2021/12/13 11:28:22;;;;;;;11.73;7.47;;;;;;;10.02;100.00;102453.72;4901678;29;20044;-77
2021/12/13 11:30:49;;;;;;;11.38;7.75;;;;;;;9.98;100.00;102449.59;4909419;29;20038;-77
2021/12/13 11:33:35;;;;;;;14.65;8.98;;;;;;;9.96;100.00;102448.03;4931413;29;20111;-77
2021/12/13 11:36:09;;;;;;;14.73;8.77;;;;;;;9.86;100.00;102443.38;4911941;29;20755;-78
2021/12/13 11:39:00;;;;;;;15.32;9.30;;;;;;;9.94;100.00;102438.50;4914852;29;20076;-77
2021/12/13 11:41:43;;;;;;;16.65;9.88;;;;;;;9.92;100.00;102442.97;4933981;29;20080;-77
2021/12/13 11:44:42;;;;;;;17.25;11.25;;;;;;;9.83;100.00;102440.97;4883818;29;20042;-77
2021/12/13 11:47:29;;;;;;;16.65;10.45;;;;;;;9.79;100.00;102438.63;4908390;29;20525;-78
2021/12/13 11:50:26;;;;;;;17.83;10.32;;;;;;;9.72;100.00;102441.66;4934409;29;20076;-77
2021/12/13 11:53:23;;;;;;;17.83;10.60;;;;;;;9.63;100.00;102431.78;4896351;29;20558;-79